Time;durP1;ratioP1;P1;durP2;ratioP2;P2;SDS_P1;SDS_P2;PMS_P1;PMS_P2;Temp;Humidity;BMP_temperature;BMP_pressure;BME280_temperature;BME280_humidity;BME280_pressure;Samples;Min_cycle;Max_cycle;Signal;HPM_P1;HPM_P2
2021/08/20 00:02:25;;;;;;;1.77;1.55;;;18.40;99.90;;;16.79;100.00;100317.13;2617239;38;21317;-83
2021/08/20 00:05:41;;;;;;;2.60;1.80;;;18.30;99.90;;;16.81;100.00;100317.72;2625678;38;20404;-81
2021/08/20 00:08:55;;;;;;;1.92;1.63;;;18.40;99.90;;;16.81;100.00;100319.63;2626431;30;20202;-81
2021/08/20 00:12:09;;;;;;;2.42;1.70;;;18.30;99.90;;;16.81;100.00;100319.63;2621033;30;20206;-81
2021/08/20 00:15:24;;;;;;;2.22;1.77;;;18.30;99.90;;;16.82;100.00;100318.56;2621234;30;20630;-81
2021/08/20 00:18:38;;;;;;;2.88;1.80;;;18.40;99.90;;;16.77;100.00;100321.03;2615958;38;20206;-81
2021/08/20 00:21:55;;;;;;;2.50;1.13;;;18.30;99.90;;;16.75;100.00;100320.41;2624493;30;20218;-80
2021/08/20 00:25:08;;;;;;;1.60;1.50;;;18.30;99.90;;;16.77;100.00;100321.88;2620568;30;20202;-82
2021/08/20 00:28:21;;;;;;;2.17;1.70;;;18.30;99.90;;;16.80;100.00;100316.09;2627453;30;20206;-83
2021/08/20 00:31:35;;;;;;;2.90;1.77;;;18.30;99.90;;;16.84;100.00;100325.44;2623410;38;20263;-81
2021/08/20 00:34:48;;;;;;;2.35;1.63;;;18.30;99.90;;;16.82;100.00;100322.09;2627815;30;20178;-80
2021/08/20 00:38:05;;;;;;;1.40;1.30;;;18.40;99.90;;;16.88;100.00;100325.88;2618136;30;20565;-81
2021/08/20 00:41:20;;;;;;;2.10;1.75;;;17.90;99.90;;;16.86;100.00;100322.53;2618060;30;20219;-82
2021/08/20 00:44:34;;;;;;;2.55;1.52;;;18.30;99.90;;;16.80;100.00;100328.75;2626883;30;20393;-83
2021/08/20 00:47:48;;;;;;;2.60;1.95;;;18.30;99.90;;;16.82;100.00;100318.56;2622251;31;20399;-81
2021/08/20 00:51:02;;;;;;;2.45;1.70;;;18.40;99.90;;;16.80;100.00;100324.19;2621576;30;20206;-82
2021/08/20 00:54:22;;;;;;;2.00;1.67;;;18.40;99.90;;;16.79;100.00;100325.22;2621422;30;20414;-81
2021/08/20 00:57:36;;;;;;;2.17;1.85;;;18.30;99.90;;;16.75;100.00;100323.09;2629631;30;20422;-82
2021/08/20 01:00:51;;;;;;;2.33;1.83;;;18.30;99.90;;;16.72;100.00;100324.31;2631730;38;20234;-82
2021/08/20 01:04:06;;;;;;;1.65;1.50;;;18.30;99.90;;;16.75;100.00;100328.50;2628886;38;20671;-81
2021/08/20 01:07:22;;;;;;;2.25;1.58;;;18.30;99.90;;;16.76;100.00;100330.19;2623092;30;20561;-81
2021/08/20 01:10:39;;;;;;;2.60;1.95;;;18.50;99.90;;;16.73;100.00;100327.84;2628110;38;20214;-82
2021/08/20 01:13:53;;;;;;;3.45;2.45;;;18.30;99.90;;;16.68;100.00;100339.28;2629019;38;20222;-82
2021/08/20 01:16:32;;;;;;;2.03;1.83;;;18.20;99.90;;;16.60;100.00;100335.81;2629907;30;20460;-83
2021/08/20 01:19:01;;;;;;;3.00;2.40;;;19.20;99.90;;;16.62;100.00;100337.34;2632082;30;21597;-82
2021/08/20 01:21:31;;;;;;;3.58;2.03;;;18.20;99.90;;;16.61;100.00;100343.75;2640658;38;20198;-84
2021/08/20 01:24:04;;;;;;;2.83;2.20;;;17.50;99.90;;;16.58;100.00;100338.72;2634719;30;20234;-82
2021/08/20 01:26:37;;;;;;;4.10;2.25;;;18.10;99.90;;;16.58;100.00;100346.00;2627315;38;20222;-81
2021/08/20 01:29:05;;;;;;;3.08;2.40;;;18.10;99.90;;;16.56;100.00;100350.78;2626435;38;20632;-83
2021/08/20 01:31:34;;;;;;;4.15;2.42;;;18.10;99.90;;;16.56;100.00;100343.50;2619853;38;20906;-83
2021/08/20 01:34:04;;;;;;;4.32;2.22;;;18.10;99.90;;;16.56;100.00;100353.47;2635814;38;20202;-83
2021/08/20 01:36:33;;;;;;;3.03;2.38;;;18.10;99.90;;;16.53;100.00;100352.84;2633784;30;20536;-83
2021/08/20 01:39:02;;;;;;;2.33;2.00;;;17.60;99.90;;;16.53;100.00;100354.69;2626797;30;20769;-82
2021/08/20 01:41:32;;;;;;;2.83;2.10;;;18.10;99.90;;;16.52;100.00;100358.44;2632787;38;20456;-81
2021/08/20 01:44:04;;;;;;;3.85;2.40;;;19.00;99.90;;;16.50;100.00;100360.47;2631142;38;20713;-82
2021/08/20 01:46:34;;;;;;;4.35;2.67;;;19.00;99.90;;;16.50;100.00;100358.63;2629016;30;20813;-84
2021/08/20 01:49:07;;;;;;;5.22;3.45;;;18.10;99.90;;;16.41;100.00;100367.91;2636261;30;20425;-82
2021/08/20 01:51:37;;;;;;;4.15;2.58;;;18.80;99.90;;;16.27;100.00;100363.41;2631060;38;20210;-83
2021/08/20 01:54:07;;;;;;;4.25;3.40;;;18.00;99.90;;;16.08;100.00;100367.56;2661673;38;20214;-84
2021/08/20 01:57:12;;;;;;;3.97;2.67;;;17.90;99.90;;;15.94;100.00;100386.53;2632645;30;20724;-83
2021/08/20 02:00:31;;;;;;;6.30;3.70;;;17.70;99.90;;;15.77;100.00;100381.34;2616114;30;21176;-83
2021/08/20 02:03:44;;;;;;;3.80;2.88;;;18.50;99.90;;;15.67;100.00;100398.84;2617641;38;20232;-85
2021/08/20 02:06:57;;;;;;;4.05;2.75;;;17.30;99.90;;;15.61;100.00;100427.41;2616224;30;20516;-81
2021/08/20 02:10:11;;;;;;;5.13;3.15;;;17.20;99.90;;;15.57;100.00;100460.34;2609226;30;20206;-80
2021/08/20 02:13:28;;;;;;;5.82;3.13;;;17.10;99.90;;;15.51;100.00;100518.50;2612551;30;20435;-83
2021/08/20 02:16:46;;;;;;;5.40;3.58;;;17.00;99.90;;;15.45;100.00;100671.09;2615515;38;20242;-81
2021/08/20 02:20:00;;;;;;;3.80;3.05;;;16.90;99.90;;;15.43;100.00;100813.38;2615083;38;20198;-83
2021/08/20 02:23:13;;;;;;;4.15;2.83;;;16.80;99.90;;;15.37;100.00;100940.78;2610584;30;20215;-81
2021/08/20 02:26:28;;;;;;;4.65;3.45;;;16.80;99.90;;;15.36;100.00;101011.06;2610645;38;20545;-81
2021/08/20 02:29:42;;;;;;;4.18;2.95;;;16.70;99.90;;;15.31;100.00;101888.00;2611362;38;20399;-80
2021/08/20 02:32:59;;;;;;;6.68;3.78;;;16.70;99.90;;;15.27;100.00;101670.88;2611938;38;20716;-82
2021/08/20 02:36:14;;;;;;;4.97;3.45;;;16.70;99.90;;;15.22;100.00;101530.25;2607968;38;21101;-81
2021/08/20 02:39:27;;;;;;;9.57;4.00;;;16.60;99.90;;;15.21;100.00;101399.16;2617041;38;20229;-81
2021/08/20 02:42:41;;;;;;;4.97;3.10;;;16.60;99.90;;;15.21;100.00;101336.28;2623876;38;20278;-81
2021/08/20 02:45:56;;;;;;;3.10;2.08;;;16.60;99.90;;;15.20;100.00;101234.88;2616492;30;20194;-81
2021/08/20 02:49:12;;;;;;;4.63;3.70;;;16.60;99.90;;;15.16;100.00;101166.13;2608674;38;20389;-80
2021/08/20 02:52:27;;;;;;;4.68;4.05;;;16.50;99.90;;;15.12;100.00;101100.06;2608437;30;20496;-82
2021/08/20 02:55:41;;;;;;;4.90;3.20;;;16.50;99.90;;;15.09;100.00;101021.22;2610666;30;20853;-80
2021/08/20 02:58:56;;;;;;;4.65;3.28;;;16.60;99.90;;;15.07;100.00;100979.28;2610111;30;20745;-81
2021/08/20 03:02:11;;;;;;;4.10;3.38;;;16.50;99.90;;;15.06;100.00;100918.31;2612384;38;20562;-83
2021/08/20 03:05:28;;;;;;;2.70;2.30;;;17.10;99.90;;;15.04;100.00;100759.47;2609536;38;20626;-82
2021/08/20 03:08:42;;;;;;;3.30;2.95;;;15.80;99.90;;;15.03;100.00;100608.75;2611320;38;20538;-82
2021/08/20 03:11:56;;;;;;;5.80;3.25;;;16.50;99.90;;;15.03;100.00;100385.91;2609580;38;20568;-81
2021/08/20 03:15:13;;;;;;;4.65;3.28;;;16.50;99.90;;;15.03;100.00;100280.81;2607811;30;20479;-81
2021/08/20 03:18:27;;;;;;;3.58;2.75;;;16.50;99.90;;;15.00;100.00;100221.06;2611500;38;20241;-79
2021/08/20 03:21:49;;;;;;;5.22;3.22;;;16.50;99.90;;;14.96;100.00;100249.44;2613969;38;21098;-80
2021/08/20 03:25:04;;;;;;;5.72;3.55;;;16.50;99.90;;;15.06;100.00;100274.22;2614108;38;20202;-82
2021/08/20 03:28:17;;;;;;;5.97;3.05;;;16.40;99.90;;;15.02;100.00;100369.91;2608539;30;20213;-81
2021/08/20 03:31:35;;;;;;;5.82;3.50;;;16.50;99.90;;;15.04;100.00;100419.09;2614887;30;20289;-82
2021/08/20 03:34:48;;;;;;;6.03;3.25;;;16.40;99.90;;;15.03;100.00;100466.75;2612103;38;20727;-80
2021/08/20 03:38:07;;;;;;;5.75;3.72;;;16.40;99.90;;;14.99;100.00;100495.06;2611010;30;20639;-83
2021/08/20 03:41:21;;;;;;;5.68;3.42;;;16.40;99.90;;;15.01;100.00;100686.22;2616086;30;20662;-82
2021/08/20 03:44:43;;;;;;;5.93;3.00;;;16.40;99.90;;;15.00;100.00;100703.41;2625669;38;20525;-82
2021/08/20 03:47:57;;;;;;;3.90;3.30;;;16.40;99.90;;;15.05;100.00;100680.31;2615031;38;21856;-83
2021/08/20 03:51:11;;;;;;;3.45;3.15;;;16.40;99.90;;;15.01;100.00;100624.25;2615184;38;20612;-82
2021/08/20 03:54:28;;;;;;;4.60;3.38;;;16.40;99.90;;;15.17;100.00;100023.09;2611973;38;20198;-83
2021/08/20 03:57:42;;;;;;;5.47;3.40;;;16.40;99.90;;;15.17;100.00;100041.97;2621346;30;20211;-82
2021/08/20 04:00:56;;;;;;;5.13;3.17;;;16.40;99.90;;;15.10;100.00;100070.69;2610793;30;20461;-81
2021/08/20 04:04:09;;;;;;;6.03;3.42;;;16.40;99.90;;;15.19;100.00;100098.38;2613618;30;20329;-82
2021/08/20 04:07:23;;;;;;;6.35;3.88;;;16.50;99.90;;;15.24;100.00;100104.84;2615040;38;20557;-83
2021/08/20 04:11:02;;;;;;;8.68;4.93;;;16.50;99.90;;;15.17;100.00;100130.91;2623100;30;20202;-81
2021/08/20 04:14:25;;;;;;;6.18;4.07;;;16.40;99.90;;;15.10;100.00;100111.94;2616488;30;20977;-83
2021/08/20 04:17:40;;;;;;;5.57;3.90;;;16.50;99.90;;;15.15;100.00;100107.84;2616217;30;21495;-82
2021/08/20 04:20:53;;;;;;;4.47;3.30;;;16.50;99.90;;;15.16;100.00;100141.88;2606032;30;20217;-80
2021/08/20 04:24:12;;;;;;;6.88;3.75;;;16.50;99.90;;;15.13;100.00;100142.25;2617041;30;20210;-80
2021/08/20 04:27:30;;;;;;;6.80;3.67;;;16.60;99.90;;;15.18;100.00;100143.34;2615823;38;20529;-82
2021/08/20 04:30:55;;;;;;;5.53;3.60;;;16.50;99.90;;;15.18;100.00;100151.44;2618801;30;22945;-83
2021/08/20 04:34:08;;;;;;;7.68;4.40;;;16.60;99.90;;;15.19;100.00;100177.38;2624026;38;22101;-81
2021/08/20 04:36:45;;;;;;;5.50;4.05;;;16.60;99.90;;;15.19;100.00;100204.31;2629368;38;20250;-81
2021/08/20 04:39:27;;;;;;;5.47;3.85;;;16.50;99.90;;;15.18;100.00;100208.03;2644994;30;25539;-82
2021/08/20 04:42:30;;;;;;;6.35;3.90;;;16.60;99.90;;;15.14;100.00;100205.91;2621004;30;21282;-83
2021/08/20 04:45:15;;;;;;;7.47;4.25;;;16.60;99.90;;;15.13;100.00;100210.44;2597609;30;131212;-85
2021/08/20 04:48:10;;;;;;;6.93;4.45;;;16.50;99.90;;;15.15;100.00;100192.25;2601926;30;96061;-83
2021/08/20 04:50:59;;;;;;;9.43;4.95;;;16.50;99.90;;;15.15;100.00;100196.78;2604447;38;64785;-81
2021/08/20 04:53:44;;;;;;;7.70;3.92;;;16.50;99.90;;;15.13;100.00;100199.69;2612221;38;98536;-83
2021/08/20 04:56:23;;;;;;;3.97;3.28;;;16.50;99.90;;;15.12;100.00;100191.78;2609319;30;115495;-83
2021/08/20 04:58:55;;;;;;;5.53;4.65;;;16.50;99.90;;;15.10;100.00;100200.03;2612645;30;104487;-82
2021/08/20 05:01:24;;;;;;;5.38;3.47;;;16.30;99.90;;;15.12;100.00;100200.69;2583646;30;113379;-82
2021/08/20 05:03:53;;;;;;;8.00;4.57;;;16.40;99.90;;;15.14;100.00;100201.34;2582860;30;130812;-80
2021/08/20 05:06:22;;;;;;;6.53;4.25;;;16.50;99.90;;;15.16;100.00;100199.31;2569639;30;124551;-83
2021/08/20 05:08:50;;;;;;;9.65;4.65;;;16.50;99.90;;;15.18;100.00;100197.25;2582135;30;124960;-82
2021/08/20 05:11:19;;;;;;;8.50;4.43;;;16.50;99.90;;;15.16;100.00;100177.75;2575340;30;128784;-83
2021/08/20 05:13:48;;;;;;;8.43;5.10;;;16.50;99.90;;;15.18;100.00;100174.84;2560080;30;130927;-82
2021/08/20 05:16:19;;;;;;;7.22;4.53;;;16.50;99.90;;;15.18;100.00;100156.81;2553230;38;131363;-84
2021/08/20 05:18:48;;;;;;;5.75;4.00;;;16.50;99.90;;;15.26;100.00;100145.06;2558873;30;131052;-80
2021/08/20 05:21:17;;;;;;;7.55;4.25;;;16.50;99.90;;;15.25;100.00;100132.63;2563386;30;133266;-82
2021/08/20 05:23:46;;;;;;;8.93;4.18;;;16.50;99.90;;;15.25;100.00;100113.75;2555659;30;133940;-84
2021/08/20 05:26:20;;;;;;;5.55;4.25;;;16.60;99.90;;;15.31;100.00;100104.91;2556205;30;131494;-82
2021/08/20 05:28:49;;;;;;;8.07;4.25;;;16.60;99.90;;;15.35;100.00;100106.19;2561952;30;131972;-80
2021/08/20 05:31:20;;;;;;;7.28;4.18;;;16.60;99.90;;;15.30;100.00;100093.28;2552899;30;131641;-84
2021/08/20 05:33:49;;;;;;;4.53;3.88;;;16.60;99.90;;;15.29;100.00;100099.72;2567078;30;131837;-84
2021/08/20 05:36:18;;;;;;;7.00;3.92;;;16.60;99.90;;;15.38;100.00;100095.84;2568275;30;131737;-83
2021/08/20 05:38:47;;;;;;;8.38;4.40;;;16.70;99.90;;;15.36;100.00;100092.50;2569991;30;128416;-81
2021/08/20 05:41:16;;;;;;;5.20;4.20;;;16.70;99.90;;;15.42;100.00;100078.25;2577819;30;123978;-80
2021/08/20 05:43:45;;;;;;;11.15;5.20;;;16.70;99.90;;;15.48;100.00;100065.84;2581094;30;109499;-81
2021/08/20 05:46:13;;;;;;;7.70;4.00;;;16.70;99.90;;;15.54;100.00;100043.50;2561120;30;132272;-81
2021/08/20 05:48:45;;;;;;;4.82;3.13;;;16.80;99.90;;;15.51;100.00;100008.84;2560724;30;131637;-83
2021/08/20 05:51:13;;;;;;;9.02;3.95;;;16.80;99.90;;;15.56;100.00;99978.63;2555475;30;131986;-82
2021/08/20 05:53:44;;;;;;;5.18;2.97;;;17.60;99.90;;;15.61;100.00;99946.50;2563004;30;132227;-83
2021/08/20 05:56:13;;;;;;;5.53;4.05;;;17.80;99.90;;;15.64;100.00;99902.94;2564797;30;135270;-81
2021/08/20 05:58:41;;;;;;;4.50;3.20;;;16.90;99.90;;;15.61;100.00;99850.22;2576890;30;128307;-79
2021/08/20 06:01:10;;;;;;;5.68;3.65;;;17.00;99.90;;;15.70;100.00;99803.16;2566344;30;129522;-81
2021/08/20 06:03:39;;;;;;;4.07;3.60;;;17.00;99.90;;;15.76;100.00;99759.22;2573792;30;127454;-81
2021/08/20 06:06:25;;;;;;;3.75;2.90;;;17.40;99.90;;;15.77;100.00;99731.19;2569048;30;129720;-82
2021/08/20 06:08:55;;;;;;;6.03;4.07;;;17.10;99.90;;;15.64;100.00;99704.22;2599183;30;115970;-82
2021/08/20 06:11:24;;;;;;;8.32;3.65;;;17.20;99.90;;;15.78;100.00;99678.91;2591831;30;130622;-82
2021/08/20 06:13:54;;;;;;;6.63;3.88;;;17.20;99.90;;;15.82;100.00;99659.63;2576981;30;127152;-81
2021/08/20 06:16:23;;;;;;;6.05;3.88;;;17.20;99.90;;;15.77;100.00;99638.66;2583831;30;113135;-83
2021/08/20 06:18:52;;;;;;;10.20;4.00;;;17.30;99.90;;;15.79;100.00;99632.03;2594151;30;122527;-83
2021/08/20 06:21:24;;;;;;;5.53;4.18;;;17.80;99.90;;;15.84;100.00;99615.19;2581114;30;127998;-81
2021/08/20 06:23:53;;;;;;;3.40;3.10;;;17.40;99.90;;;15.94;100.00;99609.41;2563777;30;131473;-80
2021/08/20 06:26:21;;;;;;;5.22;3.55;;;17.40;99.90;;;15.85;100.00;99594.44;2557231;30;131703;-80
2021/08/20 06:28:50;;;;;;;5.93;3.67;;;17.50;99.90;;;15.87;100.00;99589.69;2564995;30;131604;-82
2021/08/20 06:31:21;;;;;;;6.95;3.75;;;17.50;99.90;;;16.02;100.00;99580.31;2565244;30;128227;-81
2021/08/20 06:33:53;;;;;;;5.82;3.95;;;17.50;99.90;;;15.96;100.00;99574.94;2577678;38;130610;-81
2021/08/20 06:36:24;;;;;;;6.43;4.25;;;18.30;99.90;;;16.05;100.00;99568.28;2571168;30;126450;-81
2021/08/20 06:38:53;;;;;;;5.75;3.60;;;17.60;99.90;;;16.08;100.00;99555.19;2560512;30;130262;-83
2021/08/20 06:41:22;;;;;;;5.18;3.17;;;17.60;99.90;;;16.12;100.00;99542.94;2575061;30;126270;-82
2021/08/20 06:43:51;;;;;;;4.57;3.42;;;17.70;99.90;;;16.17;100.00;99534.22;2576914;30;119509;-83
2021/08/20 06:46:20;;;;;;;6.47;3.03;;;18.30;99.90;;;16.24;100.00;99534.16;2574886;30;131981;-81
2021/08/20 06:48:49;;;;;;;5.28;3.50;;;17.80;99.90;;;16.32;100.00;99526.66;2559489;30;130842;-81
2021/08/20 06:51:19;;;;;;;4.38;3.20;;;18.70;99.90;;;16.28;100.00;99525.44;2558232;30;131238;-81
2021/08/20 06:53:51;;;;;;;6.10;3.65;;;17.90;99.90;;;16.47;100.00;99521.81;2559858;30;128890;-80
2021/08/20 06:56:19;;;;;;;4.93;3.95;;;18.00;99.90;;;16.55;100.00;99526.16;2573569;30;128451;-81
2021/08/20 06:58:49;;;;;;;4.40;3.40;;;18.10;99.90;;;16.62;100.00;99516.19;2572399;30;126219;-84
2021/08/20 07:01:18;;;;;;;8.90;3.35;;;18.10;99.90;;;16.59;100.00;99526.53;2585869;30;122920;-81
2021/08/20 07:03:48;;;;;;;4.28;2.63;;;18.30;99.90;;;16.77;100.00;99519.44;2586025;30;119822;-83
2021/08/20 07:06:23;;;;;;;5.32;3.60;;;18.30;99.90;;;16.80;100.00;99519.00;2627986;30;113598;-80
2021/08/20 07:08:56;;;;;;;5.82;3.53;;;18.40;99.90;;;16.92;100.00;99516.44;2599446;30;95550;-82
2021/08/20 07:11:27;;;;;;;3.85;3.22;;;18.50;99.90;;;17.29;100.00;99525.53;2614398;30;114172;-80
2021/08/20 07:13:56;;;;;;;3.95;3.28;;;18.60;99.90;;;17.28;100.00;99526.56;2614557;30;59624;-83
2021/08/20 07:16:25;;;;;;;5.57;2.90;;;18.70;99.90;;;17.14;100.00;99531.25;2609448;30;69732;-81
2021/08/20 07:18:53;;;;;;;3.13;2.45;;;18.80;99.90;;;17.24;100.00;99536.16;2608369;30;120225;-83
2021/08/20 07:21:58;;;;;;;3.30;2.42;;;18.90;99.90;;;17.23;100.00;99545.31;2608756;30;120983;-82
2021/08/20 07:25:15;;;;;;;3.38;2.10;;;19.10;99.90;;;17.24;100.00;99549.69;2592647;30;122030;-82
2021/08/20 07:28:29;;;;;;;4.35;2.13;;;19.00;99.90;;;17.27;100.00;99549.25;2616556;38;111554;-80
2021/08/20 07:31:42;;;;;;;4.55;2.97;;;19.10;99.90;;;17.35;100.00;99570.59;2595276;30;124661;-81
2021/08/20 07:34:56;;;;;;;2.67;2.20;;;19.10;99.90;;;17.42;100.00;99578.69;2599168;30;122035;-82
2021/08/20 07:38:09;;;;;;;2.75;2.20;;;19.10;99.90;;;17.38;100.00;99590.97;2598427;30;125132;-81
2021/08/20 07:41:26;;;;;;;3.90;2.05;;;19.20;99.90;;;17.54;100.00;99599.38;2589249;30;121128;-81
2021/08/20 07:44:39;;;;;;;2.13;1.92;;;19.20;99.90;;;17.75;100.00;99619.00;2640911;30;125904;-82
2021/08/20 07:47:58;;;;;;;3.08;1.63;;;19.30;99.90;;;17.80;100.00;99632.72;2613567;30;96014;-82
2021/08/20 07:51:15;;;;;;;2.63;1.85;;;20.30;99.90;;;17.91;100.00;99651.78;2618771;30;124285;-83
2021/08/20 07:54:28;;;;;;;1.83;1.58;;;19.40;99.90;;;17.84;100.00;99678.06;2616919;30;126976;-82
2021/08/20 07:57:54;;;;;;;2.50;1.45;;;20.30;99.90;;;17.94;100.00;99700.03;2603997;30;99506;-83
2021/08/20 08:01:08;;;;;;;1.80;1.63;;;19.50;99.90;;;18.10;100.00;99712.19;2615215;38;106892;-81
2021/08/20 08:04:21;;;;;;;3.05;1.58;;;19.60;99.90;;;18.26;100.00;99733.31;2636798;30;131359;-84
2021/08/20 08:07:34;;;;;;;3.25;1.58;;;19.70;99.90;;;18.19;100.00;99762.31;2646063;30;126249;-84
2021/08/20 08:10:13;;;;;;;1.63;1.20;;;20.50;99.90;;;18.36;100.00;99770.72;2645843;30;120420;-84
2021/08/20 08:12:46;;;;;;;1.65;1.48;;;19.90;99.90;;;18.48;100.00;99779.81;2705044;30;89704;-81
2021/08/20 08:15:15;;;;;;;2.10;1.58;;;20.00;99.90;;;18.52;100.00;99797.28;2628262;30;106554;-83
2021/08/20 08:17:44;;;;;;;3.20;2.20;;;20.20;99.90;;;18.59;100.00;99810.78;2636261;31;129517;-86
2021/08/20 08:20:53;;;;;;;2.67;1.65;;;21.00;99.90;;;18.99;100.00;99822.94;2642460;31;123517;31
2021/08/20 08:23:43;;;;;;;2.97;1.77;;;20.40;99.90;;;19.15;100.00;99854.06;2663766;30;117430;31
2021/08/20 08:26:56;;;;;;;1.67;1.30;;;20.60;99.90;;;19.06;100.00;99930.47;2654408;30;103236;-85
2021/08/20 08:30:13;;;;;;;2.17;1.35;;;20.80;99.90;;;19.10;100.00;99956.09;2649311;30;114332;-81
2021/08/20 08:33:28;;;;;;;1.20;1.10;;;21.50;99.90;;;19.25;100.00;99973.72;2613693;30;103407;-81
2021/08/20 08:36:41;;;;;;;1.85;1.48;;;21.10;99.90;;;19.20;100.00;100019.66;2617181;30;115003;-82
2021/08/20 08:39:54;;;;;;;2.03;1.52;;;21.30;99.90;;;19.24;100.00;100053.44;2632652;30;86426;-82
2021/08/20 08:43:07;;;;;;;1.45;1.35;;;21.80;99.90;;;19.04;100.00;100068.19;2635519;30;123627;-82
2021/08/20 08:46:29;;;;;;;3.72;2.25;;;21.50;99.90;;;19.04;100.00;100076.31;2641730;30;84217;-82
2021/08/20 08:49:44;;;;;;;2.08;1.40;;;21.50;99.90;;;19.17;100.00;100073.50;2645506;30;104580;-82
2021/08/20 08:52:57;;;;;;;2.75;0.95;;;21.50;99.90;;;19.16;100.00;100085.41;2642826;30;61293;-83
2021/08/20 08:56:10;;;;;;;1.85;1.38;;;21.50;99.90;;;19.26;100.00;100096.63;2630317;38;53189;-83
2021/08/20 08:59:24;;;;;;;2.05;1.63;;;21.50;99.90;;;19.19;100.00;100115.63;2634036;38;38604;-81
2021/08/20 09:02:47;;;;;;;1.65;1.55;;;21.60;99.90;;;19.23;100.00;100132.31;2629689;30;21694;-83
2021/08/20 09:06:18;;;;;;;1.58;1.35;;;21.50;99.90;;;19.17;100.00;100160.28;2643358;30;20194;-84
2021/08/20 09:09:35;;;;;;;1.83;1.70;;;21.60;99.90;;;19.00;100.00;100157.25;2649942;38;106895;-84
2021/08/20 09:13:02;;;;;;;2.95;1.70;;;22.10;99.90;;;19.09;100.00;100164.09;2629313;30;110063;-83
2021/08/20 09:16:30;;;;;;;5.10;1.80;;;21.50;99.90;;;19.19;100.00;100153.59;2636262;30;110882;-82
2021/08/20 09:19:55;;;;;;;2.03;1.33;;;21.50;99.90;;;19.26;100.00;100156.28;2657216;38;50003;-85
2021/08/20 09:23:10;;;;;;;1.95;1.48;;;21.50;99.90;;;19.17;100.00;100174.69;2628907;38;71473;-85
2021/08/20 09:26:33;;;;;;;1.98;1.40;;;21.50;99.90;;;19.46;100.00;100184.13;2641987;30;30698;-82
2021/08/20 09:30:06;;;;;;;2.03;1.67;;;21.70;99.90;;;19.51;100.00;100219.63;2628338;38;23484;-82
2021/08/20 09:33:21;;;;;;;10.98;1.83;;;21.90;99.90;;;19.67;100.00;100264.38;2626573;30;36150;-82
2021/08/20 09:36:39;;;;;;;1.77;1.40;;;22.60;99.90;;;19.88;100.00;100277.66;2632621;38;60779;-82
2021/08/20 09:40:04;;;;;;;1.55;1.33;;;21.90;99.90;;;20.25;100.00;100305.81;2621250;30;20672;-85
2021/08/20 09:42:44;;;;;;;2.10;1.40;;;22.20;99.90;;;20.33;100.00;100351.72;2625272;30;20781;-83
2021/08/20 09:45:23;;;;;;;2.20;1.63;;;22.40;99.90;;;20.28;100.00;100375.97;2641062;38;20229;-82
2021/08/20 09:47:54;;;;;;;1.13;1.05;;;22.60;99.90;;;20.40;100.00;100384.28;2629721;30;20615;-82
2021/08/20 09:50:40;;;;;;;1.77;1.38;;;22.70;99.90;;;20.20;100.00;100413.44;2623669;30;20214;-83
2021/08/20 09:53:18;;;;;;;1.60;1.25;;;23.30;99.90;;;20.25;100.00;100438.09;2623104;38;20572;-82
2021/08/20 09:55:47;;;;;;;1.67;1.02;;;23.00;99.90;;;20.02;100.00;100442.19;2626069;30;20249;-84
2021/08/20 09:58:19;;;;;;;2.30;1.80;;;23.00;99.90;;;19.89;100.00;100472.13;2624948;30;20206;-84
2021/08/20 10:00:50;;;;;;;1.98;1.10;;;23.00;99.90;;;19.83;100.00;100489.25;2620248;38;20396;-84
2021/08/20 10:03:20;;;;;;;3.00;1.40;;;23.80;99.90;;;19.76;100.00;100465.91;2630189;38;20206;-83
2021/08/20 10:05:51;;;;;;;2.08;1.35;;;22.80;99.90;;;19.75;100.00;100451.47;2625385;30;20242;-83
2021/08/20 10:08:23;;;;;;;1.30;0.82;;;23.00;99.90;;;19.66;100.00;100464.44;2634429;30;20213;-84
2021/08/20 10:10:54;;;;;;;1.95;1.48;;;22.70;99.90;;;19.50;100.00;100469.50;2627940;30;20605;-83
2021/08/20 10:13:27;;;;;;;2.83;1.05;;;22.90;99.50;;;19.40;100.00;100485.34;2626155;30;52973;-82
2021/08/20 10:16:03;;;;;;;2.20;1.08;;;22.60;99.60;;;19.28;100.00;100490.59;2623072;30;38239;-84
2021/08/20 10:18:34;;;;;;;1.27;1.05;;;22.30;98.70;;;19.22;100.00;100488.69;2636394;30;20406;-84
2021/08/20 10:21:04;;;;;;;2.65;1.42;;;22.20;98.60;;;19.14;100.00;100484.34;2625157;38;20852;-84
2021/08/20 10:23:38;;;;;;;1.73;1.45;;;22.10;98.90;;;19.08;100.00;100468.03;2614713;30;20647;-83
2021/08/20 10:26:08;;;;;;;1.38;1.27;;;22.30;99.50;;;19.01;100.00;100471.59;2618592;38;20779;-84
2021/08/20 10:28:38;;;;;;;1.95;1.40;;;22.00;99.40;;;18.98;100.00;100463.03;2620874;30;20214;-83
2021/08/20 10:31:07;;;;;;;2.28;1.40;;;21.70;99.60;;;18.93;100.00;100462.81;2620779;30;20650;-81
2021/08/20 10:33:39;;;;;;;2.63;1.60;;;21.60;99.60;;;18.93;100.00;100450.09;2622677;30;20191;-83
2021/08/20 10:36:09;;;;;;;4.43;1.90;;;21.50;99.90;;;18.99;100.00;100448.44;2619553;30;20323;-83
2021/08/20 10:38:50;;;;;;;1.83;1.30;;;21.40;99.90;;;18.97;100.00;100453.25;2616868;30;20904;-82
2021/08/20 10:41:21;;;;;;;2.05;1.83;;;21.40;99.90;;;18.97;100.00;100439.69;2610750;38;44534;-83
2021/08/20 10:43:57;;;;;;;1.77;1.20;;;21.40;99.90;;;19.00;100.00;100440.09;2625925;38;21072;-83
2021/08/20 10:47:09;;;;;;;2.85;1.88;;;21.40;99.90;;;19.06;100.00;100445.72;2631924;30;23765;-81
2021/08/20 10:49:49;;;;;;;3.10;1.63;;;21.30;99.90;;;19.11;100.00;100441.34;2617556;30;20198;-81
2021/08/20 10:52:34;;;;;;;2.90;1.70;;;21.40;99.90;;;19.31;100.00;100447.56;2626201;38;20278;-82
2021/08/20 10:55:29;;;;;;;2.75;1.80;;;22.00;99.90;;;20.02;100.00;100449.50;2616279;30;20669;-84
2021/08/20 10:58:13;;;;;;;1.80;1.58;;;21.60;99.90;;;20.37;100.00;100501.63;2628452;30;20969;-85
2021/08/20 11:00:58;;;;;;;2.80;2.13;;;22.00;99.90;;;20.91;100.00;100562.78;2621635;38;21189;-84
2021/08/20 11:03:49;;;;;;;2.20;1.85;;;22.50;99.90;;;21.42;100.00;100650.59;2615153;31;20690;-82
2021/08/20 11:06:50;;;;;;;2.28;1.73;;;23.60;99.80;;;21.26;100.00;100730.06;2628014;38;20234;-81
2021/08/20 11:09:34;;;;;;;2.58;1.88;;;23.80;97.40;;;21.52;100.00;100776.19;2630912;31;21055;-82
2021/08/20 11:12:07;;;;;;;2.60;1.90;;;24.30;94.90;;;21.07;100.00;100829.72;2642411;38;20337;-83
2021/08/20 11:14:37;;;;;;;1.88;1.60;;;24.60;92.90;;;21.41;100.00;100852.25;2616372;30;20389;-83
2021/08/20 11:17:08;;;;;;;2.28;1.70;;;25.30;91.50;;;21.44;100.00;100868.16;2622814;30;20672;-82
2021/08/20 11:19:57;;;;;;;3.70;1.58;;;25.30;90.80;;;22.21;100.00;100887.09;2620835;30;20249;-83
2021/08/20 11:22:32;;;;;;;2.17;1.88;;;25.80;90.50;;;22.48;100.00;100873.25;2614157;38;20214;-83
2021/08/20 11:25:23;;;;;;;1.77;1.25;;;25.90;88.90;;;22.76;100.00;100913.75;2616319;38;20673;-84
2021/08/20 11:28:20;;;;;;;2.38;1.20;;;26.70;86.30;;;22.46;100.00;100291.88;2629862;30;20199;-80
2021/08/20 11:33:24;;;;;;;1.15;0.95;;;27.50;75.20;;;22.28;100.00;100292.78;2629424;30;20579;-85
2021/08/20 11:35:57;;;;;;;1.05;0.85;;;27.70;68.80;;;22.46;100.00;100278.25;2621225;38;20249;-83
2021/08/20 11:38:39;;;;;;;1.13;1.08;;;27.80;67.20;;;22.41;100.00;100283.56;2626442;30;20715;-81
2021/08/20 11:41:13;;;;;;;1.67;1.23;;;28.00;65.10;;;22.18;100.00;100281.63;2629152;38;20214;-79
2021/08/20 11:43:52;;;;;;;3.05;1.23;;;28.00;62.30;;;22.69;100.00;100282.84;2616955;38;20242;-82
2021/08/20 11:46:23;;;;;;;1.00;0.90;;;28.00;62.10;;;22.53;100.00;100300.75;2619976;30;20542;-81
2021/08/20 11:48:56;;;;;;;1.60;1.02;;;28.30;62.00;;;22.53;100.00;100301.59;2618634;38;21113;-82
2021/08/20 11:51:31;;;;;;;1.85;1.10;;;28.20;61.30;;;22.37;100.00;100315.09;2619351;38;21085;-81
2021/08/20 11:54:01;;;;;;;1.98;1.20;;;27.90;59.00;;;22.00;100.00;100303.50;2613224;30;20812;-84